Terminal Aerodrome Forecast
Issued by NWS

Home | Current Version | Previous Version | Graphics & Text | Print | Product List | Glossary On
Versions: 1 2 3 4 5 6 7 8 9 10 11 12 13 14 15 16 17 18 19
000
FTUS43 KIWX 191735
TAFSBN
TAF
KSBN 191735Z 1918/2018 21015G23KT P6SM FEW250
     FM200300 21015G23KT P6SM SCT250 WS015/25050KT
     FM201500 22012KT 5SM BR BKN015=

USA.gov is the U.S. government's official web portal to all federal, state and local government web resources and services.